createdAt,value
2019-05-18T00:00:14.746Z,3.15
2019-05-18T00:02:44.751Z,3.42
2019-05-18T00:05:14.873Z,3.65
2019-05-18T00:07:44.982Z,4.97
2019-05-18T00:10:14.952Z,5.00
2019-05-18T00:12:45.874Z,4.60
2019-05-18T00:15:15.921Z,4.08
2019-05-18T00:17:45.841Z,3.62
2019-05-18T00:20:16.251Z,3.30
2019-05-18T00:22:46.335Z,3.08
2019-05-18T00:25:16.224Z,3.00
2019-05-18T00:27:46.266Z,5.62
2019-05-18T00:30:16.689Z,4.20
2019-05-18T00:32:46.762Z,3.67
2019-05-18T00:35:16.877Z,3.30
2019-05-18T00:37:47.075Z,4.15
2019-05-18T00:40:17.058Z,3.92
2019-05-18T00:42:47.095Z,3.17
2019-05-18T00:45:17.846Z,3.72
2019-05-18T00:47:49.060Z,3.02
2019-05-18T00:50:19.229Z,3.10
2019-05-18T00:52:50.525Z,2.95
2019-05-18T00:55:20.795Z,4.83
2019-05-18T00:57:50.687Z,4.80
2019-05-18T01:00:20.836Z,6.20
2019-05-18T01:02:54.801Z,5.87
2019-05-18T01:05:25.333Z,5.28
2019-05-18T01:07:55.253Z,4.58
2019-05-18T01:10:25.169Z,4.03
2019-05-18T01:12:55.291Z,4.67
2019-05-18T01:15:27.559Z,4.40
2019-05-18T01:18:01.445Z,5.40
2019-05-18T01:20:29.869Z,3.67
2019-05-18T01:22:59.781Z,3.47
2019-05-18T01:25:29.693Z,3.70
2019-05-18T01:27:59.881Z,3.80
2019-05-18T01:30:29.919Z,3.20
2019-05-18T01:32:59.849Z,4.17
2019-05-18T01:35:30.097Z,4.28
2019-05-18T01:38:02.837Z,3.40
2019-05-18T01:40:32.721Z,3.20
2019-05-18T01:43:02.656Z,2.90
2019-05-18T01:45:32.653Z,2.33
2019-05-18T01:48:13.216Z,3.72
2019-05-18T01:50:34.259Z,3.33
2019-05-18T01:53:04.392Z,3.72
2019-05-18T01:55:34.385Z,3.45
2019-05-18T01:58:04.771Z,5.20
2019-05-18T02:00:35.284Z,5.03
2019-05-18T02:03:05.277Z,6.12
2019-05-18T02:05:35.579Z,4.72
2019-05-18T02:08:07.644Z,5.40
2019-05-18T02:10:37.911Z,4.53
2019-05-18T02:13:07.765Z,5.03
2019-05-18T02:15:37.804Z,5.35
2019-05-18T02:18:07.719Z,5.70
2019-05-18T02:20:37.771Z,5.42
2019-05-18T02:23:08.147Z,6.10
2019-05-18T02:25:38.095Z,6.08
2019-05-18T02:28:08.036Z,5.08
2019-05-18T02:30:38.031Z,5.20
2019-05-18T02:33:08.230Z,5.67
2019-05-18T02:35:38.688Z,4.65
2019-05-18T02:38:17.930Z,3.83
2019-05-18T02:40:48.694Z,5.05
2019-05-18T02:43:19.090Z,4.50
2019-05-18T02:45:49.067Z,4.80
2019-05-18T02:48:19.230Z,4.12
2019-05-18T02:50:49.424Z,4.05
2019-05-18T02:53:19.891Z,4.20
2019-05-18T02:55:50.058Z,5.85
2019-05-18T02:58:20.170Z,4.95
2019-05-18T03:00:50.992Z,5.30
2019-05-18T03:03:21.821Z,4.58
2019-05-18T03:05:51.618Z,4.17
2019-05-18T03:08:21.624Z,4.75
2019-05-18T03:10:52.949Z,3.55
2019-05-18T03:13:23.064Z,4.30
2019-05-18T03:15:53.249Z,3.33
2019-05-18T03:18:23.065Z,4.45
2019-05-18T03:20:53.125Z,4.92
2019-05-18T03:23:23.073Z,4.83
2019-05-18T03:25:53.042Z,4.85
2019-05-18T03:28:22.910Z,5.12
2019-05-18T03:30:53.036Z,4.40
2019-05-18T03:33:29.062Z,4.35
2019-05-18T03:35:55.017Z,4.85
2019-05-18T03:38:24.926Z,4.20
2019-05-18T03:40:55.359Z,4.67
2019-05-18T03:43:25.124Z,5.37
2019-05-18T03:45:55.935Z,4.40
2019-05-18T03:48:26.015Z,4.72
2019-05-18T03:50:56.339Z,5.47
2019-05-18T03:53:26.448Z,4.80
2019-05-18T03:55:56.225Z,5.62
2019-05-18T03:58:26.083Z,4.55
2019-05-18T04:00:56.141Z,3.90
2019-05-18T04:03:28.824Z,6.35
2019-05-18T04:05:58.732Z,4.08
2019-05-18T04:08:28.749Z,4.30
2019-05-18T04:10:58.728Z,5.05
2019-05-18T04:13:29.077Z,4.05
2019-05-18T04:15:58.957Z,4.85
2019-05-18T04:18:28.834Z,3.58
2019-05-18T04:21:01.769Z,7.97
2019-05-18T04:23:31.639Z,4.78
2019-05-18T04:26:01.867Z,4.95
2019-05-18T04:28:32.467Z,4.97
2019-05-18T04:31:02.368Z,5.22
2019-05-18T04:33:32.156Z,4.72
2019-05-18T04:36:02.279Z,4.62
2019-05-18T04:38:32.421Z,5.42
2019-05-18T04:41:02.984Z,4.17
2019-05-18T04:43:32.851Z,4.67
2019-05-18T04:46:02.744Z,5.92
2019-05-18T04:48:32.806Z,5.75
2019-05-18T04:51:02.614Z,6.72
2019-05-18T04:53:33.545Z,6.25
2019-05-18T04:56:04.473Z,5.08
2019-05-18T04:58:34.300Z,6.62
2019-05-18T05:01:04.173Z,5.75
2019-05-18T05:03:34.316Z,6.55
2019-05-18T05:06:04.287Z,6.37
2019-05-18T05:08:34.075Z,7.47
2019-05-18T05:11:03.991Z,7.92
2019-05-18T05:13:34.052Z,5.12
2019-05-18T05:16:04.864Z,5.42
2019-05-18T05:18:35.677Z,6.30
2019-05-18T05:21:05.552Z,6.33
2019-05-18T05:23:35.423Z,6.72
2019-05-18T05:26:05.852Z,7.90
2019-05-18T05:28:35.706Z,6.12
2019-05-18T05:31:05.895Z,5.12
2019-05-18T05:33:35.743Z,6.30
2019-05-18T05:36:05.736Z,5.70
2019-05-18T05:38:35.963Z,7.17
2019-05-18T05:41:07.552Z,8.93
2019-05-18T05:43:37.433Z,6.08
2019-05-18T05:46:08.042Z,9.38
2019-05-18T05:48:38.979Z,7.65
2019-05-18T05:51:08.893Z,7.87
2019-05-18T05:53:38.881Z,9.63
2019-05-18T05:56:08.751Z,8.25
2019-05-18T05:58:38.786Z,8.95
2019-05-18T06:01:08.736Z,8.35
2019-05-18T06:03:38.926Z,7.58
2019-05-18T06:06:08.783Z,8.70
2019-05-18T06:08:38.653Z,9.50
2019-05-18T06:11:08.525Z,9.03
2019-05-18T06:13:38.538Z,10.88
2019-05-18T06:16:08.475Z,8.85
2019-05-18T06:18:38.372Z,9.23
2019-05-18T06:21:08.869Z,8.80
2019-05-18T06:23:39.185Z,10.55
2019-05-18T06:26:09.067Z,8.53
2019-05-18T06:31:52.211Z,7.90
2019-05-18T06:34:25.486Z,9.18
2019-05-18T06:36:55.957Z,8.23
2019-05-18T06:39:26.769Z,7.20
2019-05-18T06:41:56.794Z,5.60
2019-05-18T06:44:26.924Z,10.25
2019-05-18T06:46:56.845Z,6.33
2019-05-18T06:49:26.845Z,6.42
2019-05-18T06:51:56.783Z,5.15
2019-05-18T06:54:28.335Z,4.22
2019-05-18T06:57:01.422Z,5.80
2019-05-18T06:59:32.787Z,5.50
2019-05-18T07:02:03.174Z,4.95
2019-05-18T07:04:33.254Z,4.50
2019-05-18T07:07:03.418Z,5.97
2019-05-18T07:09:33.509Z,4.37
2019-05-18T07:12:03.851Z,4.35
2019-05-18T07:14:34.127Z,3.90
2019-05-18T07:17:04.083Z,4.72
2019-05-18T07:19:34.012Z,4.58
2019-05-18T07:22:05.540Z,7.25
2019-05-18T07:24:35.400Z,4.80
2019-05-18T07:27:05.418Z,6.25
2019-05-18T07:29:35.433Z,7.47
2019-05-18T07:32:05.475Z,6.87
2019-05-18T07:34:35.777Z,6.60
2019-05-18T07:37:08.558Z,6.10
2019-05-18T07:39:38.604Z,5.28
2019-05-18T07:42:33.761Z,7.65
2019-05-18T07:45:23.657Z,6.50
2019-05-18T07:47:53.943Z,5.15
2019-05-18T07:50:23.813Z,5.55
2019-05-18T07:52:53.680Z,5.30
2019-05-18T07:55:23.690Z,5.87
2019-05-18T07:57:53.590Z,4.62
2019-05-18T08:00:23.630Z,3.98
2019-05-18T08:02:54.029Z,4.30
2019-05-18T08:05:24.077Z,6.83
2019-05-18T08:07:54.463Z,6.67
2019-05-18T08:10:38.873Z,7.20
2019-05-18T08:13:09.033Z,6.53
2019-05-18T08:15:40.213Z,5.62
2019-05-18T08:18:10.290Z,4.05
2019-05-18T08:20:40.253Z,3.50
2019-05-18T08:23:10.475Z,5.55
2019-05-18T08:25:40.309Z,3.47
2019-05-18T08:28:10.227Z,2.62
2019-05-18T08:30:40.085Z,3.05
2019-05-18T08:33:10.355Z,5.12
2019-05-18T08:35:40.255Z,3.22
2019-05-18T08:38:10.287Z,4.70
2019-05-18T08:40:55.968Z,5.28
2019-05-18T08:43:26.118Z,2.85
2019-05-18T08:45:56.401Z,4.25
2019-05-18T08:48:26.285Z,3.10
2019-05-18T08:50:56.242Z,3.30
2019-05-18T08:53:26.093Z,4.53
2019-05-18T08:55:56.098Z,4.37
2019-05-18T08:58:25.941Z,2.60
2019-05-18T09:00:55.804Z,3.10
2019-05-18T09:03:25.724Z,3.58
2019-05-18T09:05:55.626Z,2.00
2019-05-18T09:08:25.486Z,2.22
2019-05-18T09:10:55.621Z,2.90
2019-05-18T09:13:25.392Z,3.20
2019-05-18T09:15:55.277Z,4.03
2019-05-18T09:18:25.174Z,2.60
2019-05-18T09:20:55.450Z,5.33
2019-05-18T09:23:25.579Z,2.80
2019-05-18T09:25:55.400Z,3.17
2019-05-18T09:28:25.255Z,3.47
2019-05-18T09:30:55.481Z,3.58
2019-05-18T09:33:25.287Z,4.12
2019-05-18T09:35:55.560Z,3.37
2019-05-18T09:38:25.420Z,2.08
2019-05-18T09:40:55.199Z,2.27
2019-05-18T09:43:25.201Z,2.05
2019-05-18T09:45:55.093Z,1.98
2019-05-18T09:48:24.960Z,2.65
2019-05-18T09:50:54.803Z,4.10
2019-05-18T09:53:24.663Z,2.65
2019-05-18T09:55:55.568Z,2.10
2019-05-18T09:58:25.728Z,4.00
2019-05-18T10:00:55.791Z,3.17
2019-05-18T10:03:25.860Z,2.60
2019-05-18T10:05:56.374Z,2.30
2019-05-18T10:08:26.669Z,3.05
2019-05-18T10:10:57.062Z,4.12
2019-05-18T10:13:27.371Z,3.35
2019-05-18T10:15:57.184Z,3.35
2019-05-18T10:18:27.176Z,2.80
2019-05-18T10:20:56.994Z,4.22
2019-05-18T10:23:27.089Z,3.02
2019-05-18T10:25:56.922Z,1.60
2019-05-18T10:28:27.394Z,3.22
2019-05-18T10:30:57.647Z,2.22
2019-05-18T10:33:27.493Z,1.57
2019-05-18T10:35:57.424Z,2.70
2019-05-18T10:38:27.231Z,2.35
2019-05-18T10:40:57.147Z,2.60
2019-05-18T10:43:27.220Z,1.90
2019-05-18T10:45:57.608Z,2.80
2019-05-18T10:48:27.712Z,1.80
2019-05-18T10:50:57.539Z,1.90
2019-05-18T10:53:29.079Z,1.50
2019-05-18T10:55:59.179Z,1.32
2019-05-18T10:58:29.080Z,1.40
2019-05-18T11:00:59.190Z,1.40
2019-05-18T11:03:29.210Z,1.92
2019-05-18T11:05:59.020Z,2.10
2019-05-18T11:08:29.181Z,1.30
2019-05-18T11:10:59.327Z,1.27
2019-05-18T11:13:29.192Z,1.05
2019-05-18T11:15:59.700Z,0.90
2019-05-18T11:18:30.412Z,1.70
2019-05-18T11:21:17.200Z,2.05
2019-05-18T11:23:56.349Z,1.67
2019-05-18T11:26:40.645Z,1.60
2019-05-18T11:29:13.722Z,2.50
2019-05-18T11:32:09.884Z,1.77
2019-05-18T11:35:08.976Z,3.27
2019-05-18T11:37:39.721Z,1.70
2019-05-18T11:40:21.706Z,2.00
2019-05-18T11:45:41.717Z,1.80
2019-05-18T11:48:11.623Z,2.02
2019-05-18T11:50:41.794Z,2.30
2019-05-18T11:53:11.738Z,2.37
2019-05-18T11:55:41.623Z,1.62
2019-05-18T11:58:11.661Z,2.25
2019-05-18T12:00:42.362Z,1.10
2019-05-18T12:03:12.824Z,2.35
2019-05-18T12:05:42.963Z,1.90
2019-05-18T12:08:13.103Z,1.32
2019-05-18T12:10:43.273Z,1.20
2019-05-18T12:13:13.406Z,1.50
2019-05-18T12:15:44.526Z,0.93
2019-05-18T12:18:14.771Z,0.95
2019-05-18T12:20:44.633Z,1.50
2019-05-18T12:23:14.509Z,1.20
2019-05-18T12:25:44.730Z,1.12
2019-05-18T12:28:15.059Z,1.17
2019-05-18T12:30:44.879Z,2.10
2019-05-18T12:33:14.856Z,1.95
2019-05-18T12:35:44.811Z,1.65
2019-05-18T12:38:14.933Z,1.25
2019-05-18T12:40:44.814Z,0.93
2019-05-18T12:43:14.705Z,0.80
2019-05-18T12:45:45.883Z,1.20
2019-05-18T12:48:15.716Z,0.50
2019-05-18T12:50:46.030Z,0.82
2019-05-18T12:53:17.657Z,0.50
2019-05-18T12:55:47.474Z,0.68
2019-05-18T12:58:17.351Z,0.85
2019-05-18T13:00:47.294Z,1.10
2019-05-18T13:03:17.703Z,1.00
2019-05-18T13:05:47.581Z,0.80
2019-05-18T13:08:17.822Z,1.27
2019-05-18T13:10:47.700Z,0.78
2019-05-18T13:13:17.676Z,0.60
2019-05-18T13:15:47.691Z,0.95
2019-05-18T13:18:17.525Z,0.82
2019-05-18T13:20:47.857Z,0.80
2019-05-18T13:23:17.764Z,0.85
2019-05-18T13:25:47.595Z,0.98
2019-05-18T13:28:17.774Z,1.75
2019-05-18T13:30:47.861Z,1.10
2019-05-18T13:33:18.076Z,1.07
2019-05-18T13:35:47.882Z,1.30
2019-05-18T13:38:17.818Z,3.35
2019-05-18T13:40:47.803Z,1.87
2019-05-18T13:43:18.778Z,1.72
2019-05-18T13:45:48.653Z,2.22
2019-05-18T13:48:19.231Z,2.00
2019-05-18T13:50:49.247Z,1.22
2019-05-18T13:53:19.265Z,1.72
2019-05-18T13:55:49.131Z,1.70
2019-05-18T13:58:19.150Z,1.82
2019-05-18T14:00:49.017Z,2.05
2019-05-18T14:03:19.189Z,1.65
2019-05-18T14:05:49.025Z,1.47
2019-05-18T14:08:18.802Z,1.47
2019-05-18T14:10:48.598Z,1.42
2019-05-18T14:13:18.545Z,2.30
2019-05-18T14:15:49.312Z,1.50
2019-05-18T14:18:19.442Z,1.72
2019-05-18T14:20:50.382Z,1.27
2019-05-18T14:23:20.175Z,1.20
2019-05-18T14:25:50.825Z,0.90
2019-05-18T14:28:20.782Z,0.90
2019-05-18T14:30:50.582Z,1.22
2019-05-18T14:33:20.373Z,1.30
2019-05-18T14:35:50.530Z,0.98
2019-05-18T14:38:21.347Z,1.20
2019-05-18T14:40:51.359Z,1.60
2019-05-18T14:43:21.243Z,1.10
2019-05-18T14:45:51.147Z,1.70
2019-05-18T14:48:21.044Z,1.55
2019-05-18T14:50:51.009Z,1.20
2019-05-18T14:53:20.856Z,0.70
2019-05-18T14:55:51.088Z,1.00
2019-05-18T14:58:21.479Z,0.72
2019-05-18T15:00:51.430Z,1.55
2019-05-18T15:03:21.689Z,0.90
2019-05-18T15:05:51.564Z,1.12
2019-05-18T15:08:21.776Z,1.17
2019-05-18T15:10:51.788Z,1.00
2019-05-18T15:13:21.959Z,1.30
2019-05-18T15:15:51.835Z,1.00
2019-05-18T15:18:21.718Z,1.32
2019-05-18T15:20:51.644Z,1.02
2019-05-18T15:23:21.646Z,1.00
2019-05-18T15:25:51.595Z,1.42
2019-05-18T15:28:21.798Z,2.10
2019-05-18T15:30:52.727Z,1.32
2019-05-18T15:33:22.650Z,1.10
2019-05-18T15:35:52.544Z,1.15
2019-05-18T15:38:22.463Z,1.20
2019-05-18T15:40:52.233Z,0.82
2019-05-18T15:43:22.982Z,0.90
2019-05-18T15:45:52.905Z,0.70
2019-05-18T15:48:22.917Z,1.00
2019-05-18T15:50:52.865Z,1.20
2019-05-18T15:53:23.884Z,0.90
2019-05-18T15:56:05.295Z,1.07
2019-05-18T15:58:25.768Z,1.65
2019-05-18T16:00:55.664Z,1.00
2019-05-18T16:03:25.760Z,1.25
2019-05-18T16:05:55.859Z,1.25
2019-05-18T16:08:26.104Z,0.70
2019-05-18T16:10:57.290Z,0.93
2019-05-18T16:13:27.158Z,1.40
2019-05-18T16:15:58.218Z,1.32
2019-05-18T16:18:28.226Z,0.60
2019-05-18T16:20:58.255Z,1.80
2019-05-18T16:23:28.198Z,1.32
2019-05-18T16:25:58.521Z,1.30
2019-05-18T16:28:30.104Z,1.00
2019-05-18T16:31:00.232Z,1.17
2019-05-18T16:33:30.143Z,0.78
2019-05-18T16:36:03.061Z,1.22
2019-05-18T16:38:33.351Z,0.75
2019-05-18T16:41:07.391Z,0.70
2019-05-18T16:43:37.500Z,0.78
2019-05-18T16:46:08.732Z,0.72
2019-05-18T16:48:39.644Z,0.60
2019-05-18T16:51:09.591Z,0.70
2019-05-18T16:53:49.381Z,0.98
2019-05-18T16:56:16.453Z,0.90
2019-05-18T16:58:46.455Z,0.70
2019-05-18T17:01:16.311Z,0.68
2019-05-18T17:03:46.529Z,0.53
2019-05-18T17:06:16.678Z,0.50
2019-05-18T17:08:46.683Z,0.80
2019-05-18T17:11:18.642Z,0.82
2019-05-18T17:13:51.036Z,0.72
2019-05-18T17:16:21.390Z,1.02
2019-05-18T17:18:51.425Z,0.70
2019-05-18T17:21:22.009Z,0.93
2019-05-18T17:23:53.985Z,1.25
2019-05-18T17:26:30.936Z,0.82
2019-05-18T17:29:03.621Z,0.90
2019-05-18T17:31:43.610Z,0.85
2019-05-18T17:34:27.392Z,1.00
2019-05-18T17:36:57.920Z,0.60
2019-05-18T17:39:32.237Z,1.10
2019-05-18T17:42:05.166Z,0.75
2019-05-18T17:44:36.951Z,0.60
2019-05-18T17:47:07.191Z,0.70
2019-05-18T17:50:08.669Z,0.70
2019-05-18T17:52:36.976Z,0.60
2019-05-18T17:55:07.488Z,0.85
2019-05-18T17:57:37.575Z,0.80
2019-05-18T18:00:09.881Z,0.30
2019-05-18T18:02:40.271Z,0.53
2019-05-18T18:05:11.661Z,0.50
2019-05-18T18:07:41.543Z,0.80
2019-05-18T18:10:12.085Z,0.50
2019-05-18T18:13:10.506Z,0.60
2019-05-18T18:15:43.425Z,0.47
2019-05-18T18:18:13.479Z,0.90
2019-05-18T18:20:43.516Z,0.60
2019-05-18T18:23:13.987Z,0.68
2019-05-18T18:25:43.836Z,0.60
2019-05-18T18:28:13.756Z,0.72
2019-05-18T18:30:43.752Z,0.60
2019-05-18T18:33:14.126Z,0.82
2019-05-18T18:35:44.422Z,0.98
2019-05-18T18:38:14.346Z,0.57
2019-05-18T18:40:44.708Z,0.90
2019-05-18T18:43:15.689Z,0.65
2019-05-18T18:45:45.665Z,0.70
2019-05-18T18:48:15.650Z,0.60
2019-05-18T18:50:45.877Z,0.70
2019-05-18T18:53:16.469Z,1.00
2019-05-18T18:55:46.700Z,0.60
2019-05-18T18:58:16.717Z,0.68
2019-05-18T19:00:46.617Z,0.60
2019-05-18T19:03:16.700Z,0.70
2019-05-18T19:05:46.672Z,0.80
2019-05-18T19:08:16.555Z,0.90
2019-05-18T19:10:47.248Z,0.80
2019-05-18T19:13:17.093Z,0.70
2019-05-18T19:15:46.894Z,0.80
2019-05-18T19:18:17.158Z,0.88
2019-05-18T19:20:47.293Z,0.72
2019-05-18T19:23:17.327Z,0.93
2019-05-18T19:25:47.345Z,0.85
2019-05-18T19:28:18.878Z,0.80
2019-05-18T19:30:49.095Z,1.02
2019-05-18T19:33:19.314Z,0.70
2019-05-18T19:35:49.482Z,0.90
2019-05-18T19:38:20.495Z,0.93
2019-05-18T19:40:50.460Z,0.85
2019-05-18T19:43:20.457Z,0.90
2019-05-18T19:45:50.602Z,0.90
2019-05-18T19:48:20.925Z,1.00
2019-05-18T19:50:50.722Z,0.93
2019-05-18T19:53:20.631Z,0.98
2019-05-18T19:55:50.824Z,1.00
2019-05-18T19:58:21.022Z,1.00
2019-05-18T20:00:50.849Z,1.12
2019-05-18T20:03:20.867Z,1.12
2019-05-18T20:05:50.821Z,1.10
2019-05-18T20:08:20.853Z,1.00
2019-05-18T20:10:50.946Z,1.10
2019-05-18T20:13:21.056Z,0.98
2019-05-18T20:15:51.267Z,0.95
2019-05-18T20:18:21.082Z,1.12
2019-05-18T20:20:51.067Z,1.25
2019-05-18T20:23:20.982Z,1.27
2019-05-18T20:25:50.931Z,1.30
2019-05-18T20:28:23.707Z,1.15
2019-05-18T20:30:53.316Z,1.07
2019-05-18T20:33:23.137Z,1.22
2019-05-18T20:35:53.013Z,1.07
2019-05-18T20:38:23.308Z,1.37
2019-05-18T20:40:53.275Z,1.20
2019-05-18T20:43:23.498Z,1.00
2019-05-18T20:45:53.561Z,1.00
2019-05-18T20:48:23.757Z,1.17
2019-05-18T20:50:54.102Z,1.00
2019-05-18T20:53:24.337Z,1.12
2019-05-18T20:55:54.543Z,1.30
2019-05-18T20:58:38.796Z,1.30
2019-05-18T21:00:56.149Z,1.45
2019-05-18T21:03:27.273Z,1.17
2019-05-18T21:05:57.264Z,1.40
2019-05-18T21:08:28.588Z,1.22
2019-05-18T21:10:59.205Z,1.70
2019-05-18T21:13:29.351Z,1.75
2019-05-18T21:15:59.598Z,1.42
2019-05-18T21:18:30.178Z,1.90
2019-05-18T21:21:00.365Z,1.35
2019-05-18T21:23:30.421Z,1.37
2019-05-18T21:26:00.358Z,1.62
2019-05-18T21:28:30.433Z,1.42
2019-05-18T21:31:00.636Z,1.60
2019-05-18T21:33:30.646Z,1.67
2019-05-18T21:36:01.325Z,1.87
2019-05-18T21:38:31.164Z,1.62
2019-05-18T21:41:01.414Z,1.92
2019-05-18T21:43:31.328Z,1.67
2019-05-18T21:46:02.911Z,1.82
2019-05-18T21:48:33.101Z,1.80
2019-05-18T21:51:02.906Z,2.10
2019-05-18T21:53:32.986Z,2.00
2019-05-18T21:56:02.926Z,2.00
2019-05-18T21:58:32.819Z,1.60
2019-05-18T22:01:04.647Z,2.15
2019-05-18T22:03:34.577Z,2.05
2019-05-18T22:06:04.654Z,2.05
2019-05-18T22:08:34.766Z,2.10
2019-05-18T22:11:05.096Z,2.02
2019-05-18T22:13:35.401Z,2.20
2019-05-18T22:16:05.412Z,2.00
2019-05-18T22:18:35.212Z,2.08
2019-05-18T22:21:05.498Z,2.27
2019-05-18T22:23:35.628Z,2.15
2019-05-18T22:26:05.564Z,2.22
2019-05-18T22:28:35.456Z,2.65
2019-05-18T22:31:05.494Z,2.30
2019-05-18T22:33:35.430Z,2.83
2019-05-18T22:36:05.714Z,2.52
2019-05-18T22:38:35.523Z,2.40
2019-05-18T22:41:05.769Z,2.52
2019-05-18T22:43:35.834Z,2.77
2019-05-18T22:46:05.644Z,2.50
2019-05-18T22:48:41.237Z,2.92
2019-05-18T22:51:07.371Z,2.83
2019-05-18T22:53:37.478Z,2.27
2019-05-18T22:56:07.393Z,2.70
2019-05-18T22:58:37.405Z,2.58
2019-05-18T23:01:07.335Z,2.05
2019-05-18T23:03:37.602Z,2.05
2019-05-18T23:06:08.039Z,1.98
2019-05-18T23:08:38.024Z,2.08
2019-05-18T23:11:08.286Z,1.98
2019-05-18T23:13:38.452Z,1.80
2019-05-18T23:16:09.629Z,2.65
2019-05-18T23:18:39.517Z,2.27
2019-05-18T23:21:09.980Z,2.90
2019-05-18T23:23:39.984Z,3.45
2019-05-18T23:26:11.679Z,2.72
2019-05-18T23:28:42.118Z,2.42
2019-05-18T23:31:12.318Z,2.77
2019-05-18T23:33:42.208Z,2.65
2019-05-18T23:36:12.944Z,2.80
2019-05-18T23:38:43.046Z,2.50
2019-05-18T23:41:13.210Z,2.62
2019-05-18T23:43:43.444Z,2.33
2019-05-18T23:46:13.317Z,2.30
2019-05-18T23:48:44.120Z,2.20
2019-05-18T23:51:14.239Z,2.15
2019-05-18T23:53:44.478Z,2.95
2019-05-18T23:56:14.453Z,3.20
2019-05-18T23:58:44.665Z,2.75
